sensor_id;sensor_type;location;lat;lon;timestamp;P1;durP1;ratioP1;P2;durP2;ratioP2
2646;SDS011;1333;50.958;6.770;2023-06-22T00:01:54;3.10;;;2.80;;
2646;SDS011;1333;50.958;6.770;2023-06-22T00:04:20;2.80;;;2.60;;
2646;SDS011;1333;50.958;6.770;2023-06-22T00:06:45;3.80;;;2.80;;
2646;SDS011;1333;50.958;6.770;2023-06-22T00:09:11;2.90;;;2.70;;
2646;SDS011;1333;50.958;6.770;2023-06-22T00:11:36;2.47;;;2.27;;
2646;SDS011;1333;50.958;6.770;2023-06-22T00:14:03;3.10;;;2.77;;
2646;SDS011;1333;50.958;6.770;2023-06-22T00:16:29;3.10;;;2.50;;
2646;SDS011;1333;50.958;6.770;2023-06-22T00:18:56;2.87;;;2.40;;
2646;SDS011;1333;50.958;6.770;2023-06-22T00:21:25;3.27;;;2.80;;
2646;SDS011;1333;50.958;6.770;2023-06-22T00:23:53;3.03;;;2.73;;
2646;SDS011;1333;50.958;6.770;2023-06-22T00:26:19;3.13;;;2.83;;
2646;SDS011;1333;50.958;6.770;2023-06-22T00:28:45;3.57;;;2.67;;
2646;SDS011;1333;50.958;6.770;2023-06-22T00:31:11;2.47;;;2.27;;
2646;SDS011;1333;50.958;6.770;2023-06-22T00:33:37;3.30;;;2.50;;
2646;SDS011;1333;50.958;6.770;2023-06-22T00:36:02;3.30;;;3.00;;
2646;SDS011;1333;50.958;6.770;2023-06-22T00:38:28;3.40;;;2.87;;
2646;SDS011;1333;50.958;6.770;2023-06-22T00:40:54;3.10;;;2.80;;
2646;SDS011;1333;50.958;6.770;2023-06-22T00:43:19;2.43;;;2.23;;
2646;SDS011;1333;50.958;6.770;2023-06-22T00:45:45;3.27;;;2.60;;
2646;SDS011;1333;50.958;6.770;2023-06-22T00:48:11;3.50;;;2.50;;
2646;SDS011;1333;50.958;6.770;2023-06-22T00:50:37;2.60;;;2.33;;
2646;SDS011;1333;50.958;6.770;2023-06-22T00:53:04;4.60;;;3.20;;
2646;SDS011;1333;50.958;6.770;2023-06-22T00:55:38;3.70;;;2.80;;
2646;SDS011;1333;50.958;6.770;2023-06-22T00:58:08;4.73;;;3.03;;
2646;SDS011;1333;50.958;6.770;2023-06-22T01:00:35;3.40;;;3.10;;
2646;SDS011;1333;50.958;6.770;2023-06-22T01:03:02;2.90;;;2.60;;
2646;SDS011;1333;50.958;6.770;2023-06-22T01:05:28;3.53;;;2.47;;
2646;SDS011;1333;50.958;6.770;2023-06-22T01:13:12;3.40;;;3.10;;
2646;SDS011;1333;50.958;6.770;2023-06-22T01:15:44;3.20;;;2.90;;
2646;SDS011;1333;50.958;6.770;2023-06-22T01:18:14;4.03;;;2.63;;
2646;SDS011;1333;50.958;6.770;2023-06-22T01:20:43;3.03;;;2.40;;
2646;SDS011;1333;50.958;6.770;2023-06-22T01:26:13;4.07;;;2.63;;
2646;SDS011;1333;50.958;6.770;2023-06-22T01:28:45;3.40;;;2.60;;
2646;SDS011;1333;50.958;6.770;2023-06-22T01:31:13;3.00;;;2.70;;
2646;SDS011;1333;50.958;6.770;2023-06-22T01:33:43;2.40;;;2.00;;
2646;SDS011;1333;50.958;6.770;2023-06-22T01:36:11;5.37;;;2.83;;
2646;SDS011;1333;50.958;6.770;2023-06-22T01:38:38;2.43;;;2.23;;
2646;SDS011;1333;50.958;6.770;2023-06-22T01:41:04;4.20;;;2.90;;
2646;SDS011;1333;50.958;6.770;2023-06-22T01:43:30;3.60;;;2.70;;
2646;SDS011;1333;50.958;6.770;2023-06-22T01:45:57;3.03;;;2.33;;
2646;SDS011;1333;50.958;6.770;2023-06-22T01:48:23;2.70;;;2.50;;
2646;SDS011;1333;50.958;6.770;2023-06-22T01:50:51;4.90;;;2.97;;
2646;SDS011;1333;50.958;6.770;2023-06-22T01:53:18;2.97;;;2.57;;
2646;SDS011;1333;50.958;6.770;2023-06-22T01:55:45;2.50;;;2.30;;
2646;SDS011;1333;50.958;6.770;2023-06-22T01:58:10;6.67;;;3.30;;
2646;SDS011;1333;50.958;6.770;2023-06-22T02:00:37;2.63;;;2.43;;
2646;SDS011;1333;50.958;6.770;2023-06-22T02:03:06;6.30;;;3.53;;
2646;SDS011;1333;50.958;6.770;2023-06-22T02:05:52;2.97;;;2.63;;
2646;SDS011;1333;50.958;6.770;2023-06-22T02:08:24;2.90;;;2.70;;
2646;SDS011;1333;50.958;6.770;2023-06-22T02:10:53;4.53;;;2.90;;
2646;SDS011;1333;50.958;6.770;2023-06-22T02:13:21;3.63;;;2.90;;
2646;SDS011;1333;50.958;6.770;2023-06-22T02:15:49;3.40;;;2.83;;
2646;SDS011;1333;50.958;6.770;2023-06-22T02:18:15;2.40;;;2.20;;
2646;SDS011;1333;50.958;6.770;2023-06-22T02:20:40;2.90;;;2.63;;
2646;SDS011;1333;50.958;6.770;2023-06-22T02:23:06;4.90;;;2.70;;
2646;SDS011;1333;50.958;6.770;2023-06-22T02:25:32;3.37;;;3.07;;
2646;SDS011;1333;50.958;6.770;2023-06-22T02:27:58;2.83;;;2.20;;
2646;SDS011;1333;50.958;6.770;2023-06-22T02:30:24;3.60;;;2.90;;
2646;SDS011;1333;50.958;6.770;2023-06-22T02:32:50;2.97;;;2.30;;
2646;SDS011;1333;50.958;6.770;2023-06-22T02:35:29;3.27;;;2.33;;
2646;SDS011;1333;50.958;6.770;2023-06-22T02:38:00;3.10;;;2.10;;
2646;SDS011;1333;50.958;6.770;2023-06-22T02:40:27;3.53;;;2.27;;
2646;SDS011;1333;50.958;6.770;2023-06-22T02:42:57;4.40;;;2.77;;
2646;SDS011;1333;50.958;6.770;2023-06-22T02:45:26;3.43;;;2.70;;
2646;SDS011;1333;50.958;6.770;2023-06-22T02:47:52;3.40;;;2.80;;
2646;SDS011;1333;50.958;6.770;2023-06-22T02:50:17;2.60;;;2.40;;
2646;SDS011;1333;50.958;6.770;2023-06-22T02:52:43;2.63;;;2.43;;
2646;SDS011;1333;50.958;6.770;2023-06-22T02:55:08;4.57;;;2.73;;
2646;SDS011;1333;50.958;6.770;2023-06-22T02:57:34;2.60;;;2.40;;
2646;SDS011;1333;50.958;6.770;2023-06-22T02:59:59;3.83;;;2.83;;
2646;SDS011;1333;50.958;6.770;2023-06-22T03:02:27;2.90;;;2.47;;
2646;SDS011;1333;50.958;6.770;2023-06-22T03:04:53;2.80;;;2.40;;
2646;SDS011;1333;50.958;6.770;2023-06-22T03:07:19;4.20;;;3.10;;
2646;SDS011;1333;50.958;6.770;2023-06-22T03:09:45;3.53;;;2.73;;
2646;SDS011;1333;50.958;6.770;2023-06-22T03:12:11;3.13;;;2.77;;
2646;SDS011;1333;50.958;6.770;2023-06-22T03:14:36;3.07;;;2.03;;
2646;SDS011;1333;50.958;6.770;2023-06-22T03:17:04;2.30;;;2.10;;
2646;SDS011;1333;50.958;6.770;2023-06-22T03:19:30;3.43;;;2.87;;
2646;SDS011;1333;50.958;6.770;2023-06-22T03:21:56;2.70;;;2.20;;
2646;SDS011;1333;50.958;6.770;2023-06-22T03:24:22;3.23;;;2.93;;
2646;SDS011;1333;50.958;6.770;2023-06-22T03:26:48;3.97;;;2.63;;
2646;SDS011;1333;50.958;6.770;2023-06-22T03:29:13;3.50;;;2.80;;
2646;SDS011;1333;50.958;6.770;2023-06-22T03:31:40;3.30;;;2.70;;
2646;SDS011;1333;50.958;6.770;2023-06-22T03:34:06;2.87;;;2.53;;
2646;SDS011;1333;50.958;6.770;2023-06-22T03:36:31;3.07;;;2.77;;
2646;SDS011;1333;50.958;6.770;2023-06-22T03:38:57;4.00;;;3.33;;
2646;SDS011;1333;50.958;6.770;2023-06-22T03:41:22;3.00;;;2.40;;
2646;SDS011;1333;50.958;6.770;2023-06-22T03:43:48;2.93;;;2.73;;
2646;SDS011;1333;50.958;6.770;2023-06-22T03:46:13;3.63;;;3.33;;
2646;SDS011;1333;50.958;6.770;2023-06-22T03:48:39;4.03;;;3.00;;
2646;SDS011;1333;50.958;6.770;2023-06-22T03:51:04;3.83;;;3.50;;
2646;SDS011;1333;50.958;6.770;2023-06-22T03:53:30;3.97;;;3.20;;
2646;SDS011;1333;50.958;6.770;2023-06-22T03:55:56;2.50;;;2.23;;
2646;SDS011;1333;50.958;6.770;2023-06-22T03:58:22;3.77;;;3.20;;
2646;SDS011;1333;50.958;6.770;2023-06-22T04:00:48;5.43;;;3.43;;
2646;SDS011;1333;50.958;6.770;2023-06-22T04:03:14;3.70;;;2.80;;
2646;SDS011;1333;50.958;6.770;2023-06-22T04:05:40;3.13;;;2.83;;
2646;SDS011;1333;50.958;6.770;2023-06-22T04:08:06;3.40;;;3.03;;
2646;SDS011;1333;50.958;6.770;2023-06-22T04:10:32;4.60;;;3.83;;
2646;SDS011;1333;50.958;6.770;2023-06-22T04:12:58;2.90;;;2.60;;
2646;SDS011;1333;50.958;6.770;2023-06-22T04:15:23;3.20;;;2.90;;
2646;SDS011;1333;50.958;6.770;2023-06-22T04:17:49;3.00;;;2.70;;
2646;SDS011;1333;50.958;6.770;2023-06-22T04:20:14;4.50;;;3.53;;
2646;SDS011;1333;50.958;6.770;2023-06-22T04:22:40;3.40;;;3.10;;
2646;SDS011;1333;50.958;6.770;2023-06-22T04:25:06;4.90;;;2.90;;
2646;SDS011;1333;50.958;6.770;2023-06-22T04:27:34;4.20;;;2.87;;
2646;SDS011;1333;50.958;6.770;2023-06-22T04:30:07;3.13;;;2.80;;
2646;SDS011;1333;50.958;6.770;2023-06-22T04:32:33;4.30;;;3.60;;
2646;SDS011;1333;50.958;6.770;2023-06-22T04:35:00;3.93;;;3.37;;
2646;SDS011;1333;50.958;6.770;2023-06-22T04:37:27;3.30;;;3.00;;
2646;SDS011;1333;50.958;6.770;2023-06-22T04:39:52;4.17;;;3.60;;
2646;SDS011;1333;50.958;6.770;2023-06-22T04:42:18;3.93;;;3.20;;
2646;SDS011;1333;50.958;6.770;2023-06-22T04:44:43;3.33;;;2.67;;
2646;SDS011;1333;50.958;6.770;2023-06-22T04:47:09;2.90;;;2.67;;
2646;SDS011;1333;50.958;6.770;2023-06-22T04:49:35;4.30;;;3.90;;
2646;SDS011;1333;50.958;6.770;2023-06-22T04:52:08;4.50;;;3.57;;
2646;SDS011;1333;50.958;6.770;2023-06-22T04:54:37;5.23;;;4.50;;
2646;SDS011;1333;50.958;6.770;2023-06-22T04:57:06;6.70;;;4.03;;
2646;SDS011;1333;50.958;6.770;2023-06-22T04:59:35;4.27;;;2.90;;
2646;SDS011;1333;50.958;6.770;2023-06-22T05:02:04;4.90;;;3.07;;
2646;SDS011;1333;50.958;6.770;2023-06-22T05:04:30;6.73;;;3.47;;
2646;SDS011;1333;50.958;6.770;2023-06-22T05:06:57;4.67;;;3.17;;
2646;SDS011;1333;50.958;6.770;2023-06-22T05:09:23;4.23;;;3.60;;
2646;SDS011;1333;50.958;6.770;2023-06-22T05:11:50;4.50;;;3.90;;
2646;SDS011;1333;50.958;6.770;2023-06-22T05:14:16;3.07;;;2.77;;
2646;SDS011;1333;50.958;6.770;2023-06-22T05:16:42;5.67;;;3.67;;
2646;SDS011;1333;50.958;6.770;2023-06-22T05:19:08;3.07;;;2.70;;
2646;SDS011;1333;50.958;6.770;2023-06-22T05:21:34;3.40;;;3.07;;
2646;SDS011;1333;50.958;6.770;2023-06-22T05:24:00;3.37;;;3.07;;
2646;SDS011;1333;50.958;6.770;2023-06-22T05:26:27;4.30;;;3.90;;
2646;SDS011;1333;50.958;6.770;2023-06-22T05:28:53;4.10;;;3.50;;
2646;SDS011;1333;50.958;6.770;2023-06-22T05:31:19;7.73;;;3.70;;
2646;SDS011;1333;50.958;6.770;2023-06-22T05:33:46;3.67;;;3.17;;
2646;SDS011;1333;50.958;6.770;2023-06-22T05:36:12;4.50;;;3.20;;
2646;SDS011;1333;50.958;6.770;2023-06-22T05:38:39;3.73;;;3.20;;
2646;SDS011;1333;50.958;6.770;2023-06-22T05:41:05;4.00;;;3.60;;
2646;SDS011;1333;50.958;6.770;2023-06-22T05:43:31;4.00;;;3.63;;
2646;SDS011;1333;50.958;6.770;2023-06-22T05:45:57;4.60;;;3.50;;
2646;SDS011;1333;50.958;6.770;2023-06-22T05:48:23;7.30;;;4.10;;
2646;SDS011;1333;50.958;6.770;2023-06-22T05:50:48;5.90;;;3.60;;
2646;SDS011;1333;50.958;6.770;2023-06-22T05:53:14;3.90;;;3.20;;
2646;SDS011;1333;50.958;6.770;2023-06-22T05:55:40;4.63;;;3.50;;
2646;SDS011;1333;50.958;6.770;2023-06-22T05:58:06;3.50;;;3.20;;
2646;SDS011;1333;50.958;6.770;2023-06-22T06:00:31;4.17;;;3.13;;
2646;SDS011;1333;50.958;6.770;2023-06-22T06:02:57;4.67;;;4.17;;
2646;SDS011;1333;50.958;6.770;2023-06-22T06:05:28;4.00;;;3.37;;
2646;SDS011;1333;50.958;6.770;2023-06-22T06:07:54;4.40;;;4.00;;
2646;SDS011;1333;50.958;6.770;2023-06-22T06:10:20;5.50;;;3.73;;
2646;SDS011;1333;50.958;6.770;2023-06-22T06:12:46;4.37;;;3.97;;
2646;SDS011;1333;50.958;6.770;2023-06-22T06:15:11;6.90;;;3.60;;
2646;SDS011;1333;50.958;6.770;2023-06-22T06:17:44;3.50;;;3.20;;
2646;SDS011;1333;50.958;6.770;2023-06-22T06:20:11;3.70;;;3.40;;
2646;SDS011;1333;50.958;6.770;2023-06-22T06:22:37;8.23;;;3.77;;
2646;SDS011;1333;50.958;6.770;2023-06-22T06:25:02;5.97;;;3.80;;
2646;SDS011;1333;50.958;6.770;2023-06-22T06:27:29;3.70;;;3.40;;
2646;SDS011;1333;50.958;6.770;2023-06-22T06:29:55;4.70;;;3.60;;
2646;SDS011;1333;50.958;6.770;2023-06-22T06:32:20;4.17;;;3.87;;
2646;SDS011;1333;50.958;6.770;2023-06-22T06:34:46;4.40;;;3.90;;
2646;SDS011;1333;50.958;6.770;2023-06-22T06:37:11;4.87;;;3.70;;
2646;SDS011;1333;50.958;6.770;2023-06-22T06:39:37;4.10;;;3.27;;
2646;SDS011;1333;50.958;6.770;2023-06-22T06:42:02;4.67;;;3.70;;
2646;SDS011;1333;50.958;6.770;2023-06-22T06:44:29;3.80;;;3.50;;
2646;SDS011;1333;50.958;6.770;2023-06-22T06:46:55;4.37;;;3.97;;
2646;SDS011;1333;50.958;6.770;2023-06-22T06:49:20;4.20;;;3.70;;
2646;SDS011;1333;50.958;6.770;2023-06-22T06:51:46;3.87;;;3.57;;
2646;SDS011;1333;50.958;6.770;2023-06-22T06:54:11;3.63;;;3.33;;
2646;SDS011;1333;50.958;6.770;2023-06-22T06:56:37;5.40;;;3.63;;
2646;SDS011;1333;50.958;6.770;2023-06-22T06:59:03;3.50;;;3.20;;
2646;SDS011;1333;50.958;6.770;2023-06-22T07:01:28;4.70;;;3.80;;
2646;SDS011;1333;50.958;6.770;2023-06-22T07:03:58;14.73;;;11.33;;
2646;SDS011;1333;50.958;6.770;2023-06-22T07:06:24;21.20;;;10.53;;
2646;SDS011;1333;50.958;6.770;2023-06-22T07:08:54;6.10;;;4.67;;
2646;SDS011;1333;50.958;6.770;2023-06-22T07:11:20;5.60;;;5.10;;
2646;SDS011;1333;50.958;6.770;2023-06-22T07:13:45;5.13;;;4.27;;
2646;SDS011;1333;50.958;6.770;2023-06-22T07:16:11;4.33;;;3.93;;
2646;SDS011;1333;50.958;6.770;2023-06-22T07:18:46;4.93;;;4.43;;
2646;SDS011;1333;50.958;6.770;2023-06-22T07:21:11;13.23;;;6.73;;
2646;SDS011;1333;50.958;6.770;2023-06-22T07:23:37;16.83;;;9.77;;
2646;SDS011;1333;50.958;6.770;2023-06-22T07:26:02;10.13;;;6.57;;
2646;SDS011;1333;50.958;6.770;2023-06-22T07:28:28;7.13;;;5.03;;
2646;SDS011;1333;50.958;6.770;2023-06-22T07:30:56;5.37;;;4.87;;
2646;SDS011;1333;50.958;6.770;2023-06-22T07:33:22;5.53;;;5.03;;
2646;SDS011;1333;50.958;6.770;2023-06-22T07:35:47;6.03;;;5.63;;
2646;SDS011;1333;50.958;6.770;2023-06-22T07:38:13;5.20;;;4.80;;
2646;SDS011;1333;50.958;6.770;2023-06-22T07:40:39;6.17;;;5.67;;
2646;SDS011;1333;50.958;6.770;2023-06-22T07:43:06;6.30;;;5.50;;
2646;SDS011;1333;50.958;6.770;2023-06-22T07:45:32;5.37;;;4.67;;
2646;SDS011;1333;50.958;6.770;2023-06-22T07:47:59;6.00;;;5.40;;
2646;SDS011;1333;50.958;6.770;2023-06-22T07:50:25;5.57;;;5.07;;
2646;SDS011;1333;50.958;6.770;2023-06-22T07:52:51;6.17;;;5.57;;
2646;SDS011;1333;50.958;6.770;2023-06-22T07:55:17;7.23;;;6.20;;
2646;SDS011;1333;50.958;6.770;2023-06-22T07:57:43;6.30;;;5.80;;
2646;SDS011;1333;50.958;6.770;2023-06-22T08:00:09;7.50;;;5.43;;
2646;SDS011;1333;50.958;6.770;2023-06-22T08:02:42;6.63;;;5.50;;
2646;SDS011;1333;50.958;6.770;2023-06-22T08:05:09;5.73;;;5.33;;
2646;SDS011;1333;50.958;6.770;2023-06-22T08:07:36;5.20;;;4.80;;
2646;SDS011;1333;50.958;6.770;2023-06-22T08:10:02;6.47;;;5.23;;
2646;SDS011;1333;50.958;6.770;2023-06-22T08:12:29;5.80;;;5.30;;
2646;SDS011;1333;50.958;6.770;2023-06-22T08:14:54;5.67;;;5.30;;
2646;SDS011;1333;50.958;6.770;2023-06-22T08:17:21;9.20;;;5.97;;
2646;SDS011;1333;50.958;6.770;2023-06-22T08:19:47;5.77;;;5.27;;
2646;SDS011;1333;50.958;6.770;2023-06-22T08:22:13;5.90;;;5.40;;
2646;SDS011;1333;50.958;6.770;2023-06-22T08:24:39;6.63;;;6.13;;
2646;SDS011;1333;50.958;6.770;2023-06-22T08:27:06;6.13;;;5.53;;
2646;SDS011;1333;50.958;6.770;2023-06-22T08:29:39;6.30;;;5.80;;
2646;SDS011;1333;50.958;6.770;2023-06-22T08:32:07;7.97;;;7.27;;
2646;SDS011;1333;50.958;6.770;2023-06-22T08:34:34;5.63;;;5.23;;
2646;SDS011;1333;50.958;6.770;2023-06-22T08:36:59;6.50;;;6.10;;
2646;SDS011;1333;50.958;6.770;2023-06-22T08:39:25;5.93;;;5.43;;
2646;SDS011;1333;50.958;6.770;2023-06-22T08:41:51;7.77;;;5.67;;
2646;SDS011;1333;50.958;6.770;2023-06-22T08:44:18;6.63;;;5.93;;
2646;SDS011;1333;50.958;6.770;2023-06-22T08:46:44;6.00;;;5.50;;
2646;SDS011;1333;50.958;6.770;2023-06-22T08:49:10;6.53;;;6.03;;
2646;SDS011;1333;50.958;6.770;2023-06-22T08:51:35;6.50;;;6.00;;
2646;SDS011;1333;50.958;6.770;2023-06-22T08:54:01;6.37;;;5.87;;
2646;SDS011;1333;50.958;6.770;2023-06-22T08:56:26;5.70;;;5.30;;
2646;SDS011;1333;50.958;6.770;2023-06-22T08:58:52;6.47;;;5.97;;
2646;SDS011;1333;50.958;6.770;2023-06-22T09:01:17;5.33;;;4.93;;
2646;SDS011;1333;50.958;6.770;2023-06-22T09:03:43;6.10;;;5.50;;
2646;SDS011;1333;50.958;6.770;2023-06-22T09:06:19;4.60;;;4.30;;
2646;SDS011;1333;50.958;6.770;2023-06-22T09:08:47;6.90;;;6.30;;
2646;SDS011;1333;50.958;6.770;2023-06-22T09:11:14;5.90;;;5.50;;
2646;SDS011;1333;50.958;6.770;2023-06-22T09:13:39;6.23;;;5.63;;
2646;SDS011;1333;50.958;6.770;2023-06-22T09:16:05;6.10;;;5.60;;
2646;SDS011;1333;50.958;6.770;2023-06-22T09:18:31;6.60;;;6.00;;
2646;SDS011;1333;50.958;6.770;2023-06-22T09:20:57;6.30;;;5.70;;
2646;SDS011;1333;50.958;6.770;2023-06-22T09:23:22;7.67;;;7.00;;
2646;SDS011;1333;50.958;6.770;2023-06-22T09:25:48;7.60;;;6.90;;
2646;SDS011;1333;50.958;6.770;2023-06-22T09:28:14;8.23;;;7.33;;
2646;SDS011;1333;50.958;6.770;2023-06-22T09:30:39;8.37;;;7.60;;
2646;SDS011;1333;50.958;6.770;2023-06-22T09:33:05;8.23;;;6.73;;
2646;SDS011;1333;50.958;6.770;2023-06-22T09:35:31;6.77;;;5.93;;
2646;SDS011;1333;50.958;6.770;2023-06-22T09:37:56;9.93;;;7.27;;
2646;SDS011;1333;50.958;6.770;2023-06-22T09:40:22;6.63;;;6.03;;
2646;SDS011;1333;50.958;6.770;2023-06-22T09:42:47;7.03;;;6.00;;
2646;SDS011;1333;50.958;6.770;2023-06-22T09:45:13;5.87;;;5.43;;
2646;SDS011;1333;50.958;6.770;2023-06-22T09:47:38;7.03;;;6.43;;
2646;SDS011;1333;50.958;6.770;2023-06-22T09:50:05;8.10;;;7.37;;
2646;SDS011;1333;50.958;6.770;2023-06-22T09:52:30;6.33;;;5.77;;
2646;SDS011;1333;50.958;6.770;2023-06-22T09:54:56;7.00;;;6.40;;
2646;SDS011;1333;50.958;6.770;2023-06-22T09:57:22;6.43;;;5.83;;
2646;SDS011;1333;50.958;6.770;2023-06-22T09:59:47;6.30;;;5.80;;
2646;SDS011;1333;50.958;6.770;2023-06-22T10:02:13;7.10;;;6.30;;
2646;SDS011;1333;50.958;6.770;2023-06-22T10:04:38;6.50;;;5.87;;
2646;SDS011;1333;50.958;6.770;2023-06-22T10:07:05;7.43;;;5.90;;
2646;SDS011;1333;50.958;6.770;2023-06-22T10:09:32;6.93;;;6.33;;
2646;SDS011;1333;50.958;6.770;2023-06-22T10:11:57;6.20;;;5.60;;
2646;SDS011;1333;50.958;6.770;2023-06-22T10:14:23;6.73;;;6.00;;
2646;SDS011;1333;50.958;6.770;2023-06-22T10:16:50;6.37;;;5.77;;
2646;SDS011;1333;50.958;6.770;2023-06-22T10:19:17;6.13;;;5.53;;
2646;SDS011;1333;50.958;6.770;2023-06-22T10:21:42;6.60;;;5.83;;
2646;SDS011;1333;50.958;6.770;2023-06-22T10:24:08;7.13;;;6.47;;
2646;SDS011;1333;50.958;6.770;2023-06-22T10:26:34;6.90;;;6.07;;
2646;SDS011;1333;50.958;6.770;2023-06-22T10:29:01;7.23;;;6.27;;
2646;SDS011;1333;50.958;6.770;2023-06-22T10:31:27;7.70;;;7.00;;
2646;SDS011;1333;50.958;6.770;2023-06-22T10:33:53;7.77;;;6.97;;
2646;SDS011;1333;50.958;6.770;2023-06-22T10:36:19;7.50;;;6.80;;
2646;SDS011;1333;50.958;6.770;2023-06-22T10:38:46;7.93;;;6.90;;
2646;SDS011;1333;50.958;6.770;2023-06-22T10:41:13;10.57;;;7.10;;
2646;SDS011;1333;50.958;6.770;2023-06-22T10:43:38;8.47;;;6.93;;
2646;SDS011;1333;50.958;6.770;2023-06-22T10:46:04;11.97;;;8.90;;
2646;SDS011;1333;50.958;6.770;2023-06-22T10:48:29;7.63;;;6.47;;
2646;SDS011;1333;50.958;6.770;2023-06-22T10:50:55;11.33;;;7.50;;
2646;SDS011;1333;50.958;6.770;2023-06-22T10:53:21;8.53;;;6.40;;
2646;SDS011;1333;50.958;6.770;2023-06-22T10:55:46;8.17;;;7.37;;
2646;SDS011;1333;50.958;6.770;2023-06-22T10:58:12;7.53;;;6.80;;
2646;SDS011;1333;50.958;6.770;2023-06-22T11:00:38;8.50;;;7.20;;
2646;SDS011;1333;50.958;6.770;2023-06-22T11:03:03;6.77;;;6.07;;
2646;SDS011;1333;50.958;6.770;2023-06-22T11:05:29;9.67;;;7.30;;
2646;SDS011;1333;50.958;6.770;2023-06-22T11:07:54;7.37;;;6.70;;
2646;SDS011;1333;50.958;6.770;2023-06-22T11:10:20;7.67;;;6.97;;
2646;SDS011;1333;50.958;6.770;2023-06-22T11:12:45;11.03;;;8.17;;
2646;SDS011;1333;50.958;6.770;2023-06-22T11:15:11;9.37;;;7.53;;
2646;SDS011;1333;50.958;6.770;2023-06-22T11:17:36;8.07;;;7.27;;
2646;SDS011;1333;50.958;6.770;2023-06-22T11:20:02;7.43;;;6.40;;
2646;SDS011;1333;50.958;6.770;2023-06-22T11:22:35;8.83;;;7.10;;
2646;SDS011;1333;50.958;6.770;2023-06-22T11:25:01;7.37;;;6.30;;
2646;SDS011;1333;50.958;6.770;2023-06-22T11:27:27;10.30;;;7.27;;
2646;SDS011;1333;50.958;6.770;2023-06-22T11:29:53;8.13;;;7.33;;
2646;SDS011;1333;50.958;6.770;2023-06-22T11:32:18;10.73;;;8.50;;
2646;SDS011;1333;50.958;6.770;2023-06-22T11:34:44;11.00;;;7.37;;
2646;SDS011;1333;50.958;6.770;2023-06-22T11:37:09;11.03;;;7.67;;
2646;SDS011;1333;50.958;6.770;2023-06-22T11:39:35;11.37;;;7.47;;
2646;SDS011;1333;50.958;6.770;2023-06-22T11:42:00;8.57;;;7.70;;
2646;SDS011;1333;50.958;6.770;2023-06-22T11:44:26;8.57;;;7.70;;
2646;SDS011;1333;50.958;6.770;2023-06-22T11:46:51;10.60;;;6.77;;
2646;SDS011;1333;50.958;6.770;2023-06-22T11:49:17;8.47;;;7.57;;
2646;SDS011;1333;50.958;6.770;2023-06-22T11:51:42;7.13;;;6.43;;
2646;SDS011;1333;50.958;6.770;2023-06-22T11:54:08;7.90;;;7.07;;
2646;SDS011;1333;50.958;6.770;2023-06-22T11:56:33;11.30;;;8.73;;
2646;SDS011;1333;50.958;6.770;2023-06-22T11:58:59;11.73;;;9.23;;
2646;SDS011;1333;50.958;6.770;2023-06-22T12:01:24;7.57;;;6.00;;
2646;SDS011;1333;50.958;6.770;2023-06-22T12:03:50;6.47;;;5.87;;
2646;SDS011;1333;50.958;6.770;2023-06-22T12:06:16;8.10;;;7.30;;
2646;SDS011;1333;50.958;6.770;2023-06-22T12:08:41;9.37;;;7.73;;
2646;SDS011;1333;50.958;6.770;2023-06-22T12:11:07;8.43;;;7.63;;
2646;SDS011;1333;50.958;6.770;2023-06-22T12:13:32;9.13;;;7.90;;
2646;SDS011;1333;50.958;6.770;2023-06-22T12:15:58;9.10;;;7.10;;
2646;SDS011;1333;50.958;6.770;2023-06-22T12:18:23;7.80;;;7.10;;
2646;SDS011;1333;50.958;6.770;2023-06-22T12:20:49;9.77;;;8.17;;
2646;SDS011;1333;50.958;6.770;2023-06-22T12:23:15;8.33;;;7.53;;
2646;SDS011;1333;50.958;6.770;2023-06-22T12:25:40;8.50;;;7.63;;
2646;SDS011;1333;50.958;6.770;2023-06-22T12:28:06;10.00;;;8.30;;
2646;SDS011;1333;50.958;6.770;2023-06-22T12:30:32;11.13;;;9.90;;
2646;SDS011;1333;50.958;6.770;2023-06-22T12:32:58;8.90;;;8.00;;
2646;SDS011;1333;50.958;6.770;2023-06-22T12:35:24;9.97;;;8.87;;
2646;SDS011;1333;50.958;6.770;2023-06-22T12:37:49;9.07;;;8.10;;
2646;SDS011;1333;50.958;6.770;2023-06-22T12:40:15;9.67;;;8.67;;
2646;SDS011;1333;50.958;6.770;2023-06-22T12:42:40;8.90;;;8.07;;
2646;SDS011;1333;50.958;6.770;2023-06-22T12:45:07;10.10;;;8.63;;
2646;SDS011;1333;50.958;6.770;2023-06-22T12:47:33;8.33;;;7.53;;
2646;SDS011;1333;50.958;6.770;2023-06-22T12:49:59;7.20;;;6.60;;
2646;SDS011;1333;50.958;6.770;2023-06-22T12:52:24;8.87;;;7.97;;
2646;SDS011;1333;50.958;6.770;2023-06-22T12:54:50;9.70;;;7.20;;
2646;SDS011;1333;50.958;6.770;2023-06-22T12:57:15;8.00;;;7.13;;
2646;SDS011;1333;50.958;6.770;2023-06-22T12:59:42;9.67;;;7.53;;
2646;SDS011;1333;50.958;6.770;2023-06-22T13:02:08;8.70;;;7.80;;
2646;SDS011;1333;50.958;6.770;2023-06-22T13:04:33;8.60;;;7.90;;
2646;SDS011;1333;50.958;6.770;2023-06-22T13:06:59;7.43;;;6.73;;
2646;SDS011;1333;50.958;6.770;2023-06-22T13:09:25;8.10;;;7.30;;
2646;SDS011;1333;50.958;6.770;2023-06-22T13:11:50;9.60;;;6.60;;
2646;SDS011;1333;50.958;6.770;2023-06-22T13:14:17;8.47;;;6.23;;
2646;SDS011;1333;50.958;6.770;2023-06-22T13:16:42;6.30;;;5.80;;
2646;SDS011;1333;50.958;6.770;2023-06-22T13:19:08;7.20;;;6.50;;
2646;SDS011;1333;50.958;6.770;2023-06-22T13:21:34;6.33;;;5.73;;
2646;SDS011;1333;50.958;6.770;2023-06-22T13:23:59;6.07;;;5.50;;
2646;SDS011;1333;50.958;6.770;2023-06-22T13:26:26;5.73;;;5.00;;
2646;SDS011;1333;50.958;6.770;2023-06-22T13:28:53;7.00;;;6.40;;
2646;SDS011;1333;50.958;6.770;2023-06-22T13:31:19;6.40;;;5.83;;
2646;SDS011;1333;50.958;6.770;2023-06-22T13:33:44;6.27;;;5.73;;
2646;SDS011;1333;50.958;6.770;2023-06-22T13:36:12;9.23;;;6.20;;
2646;SDS011;1333;50.958;6.770;2023-06-22T13:38:38;6.10;;;5.50;;
2646;SDS011;1333;50.958;6.770;2023-06-22T13:41:06;8.27;;;6.00;;
2646;SDS011;1333;50.958;6.770;2023-06-22T13:43:32;6.40;;;5.80;;
2646;SDS011;1333;50.958;6.770;2023-06-22T13:45:57;7.10;;;6.10;;
2646;SDS011;1333;50.958;6.770;2023-06-22T13:48:23;7.13;;;6.47;;
2646;SDS011;1333;50.958;6.770;2023-06-22T13:50:50;6.10;;;5.50;;
2646;SDS011;1333;50.958;6.770;2023-06-22T13:53:16;8.87;;;6.70;;
2646;SDS011;1333;50.958;6.770;2023-06-22T13:55:42;7.40;;;6.07;;
2646;SDS011;1333;50.958;6.770;2023-06-22T13:58:07;6.87;;;5.90;;
2646;SDS011;1333;50.958;6.770;2023-06-22T14:00:33;7.03;;;6.27;;
2646;SDS011;1333;50.958;6.770;2023-06-22T14:02:58;7.00;;;6.30;;
2646;SDS011;1333;50.958;6.770;2023-06-22T14:05:24;7.23;;;6.07;;
2646;SDS011;1333;50.958;6.770;2023-06-22T14:07:49;8.20;;;7.30;;
2646;SDS011;1333;50.958;6.770;2023-06-22T14:10:15;7.90;;;7.13;;
2646;SDS011;1333;50.958;6.770;2023-06-22T14:12:40;7.53;;;6.70;;
2646;SDS011;1333;50.958;6.770;2023-06-22T14:15:06;5.83;;;4.40;;
2646;SDS011;1333;50.958;6.770;2023-06-22T14:17:32;5.77;;;5.23;;
2646;SDS011;1333;50.958;6.770;2023-06-22T14:19:57;6.27;;;5.77;;
2646;SDS011;1333;50.958;6.770;2023-06-22T14:22:23;5.03;;;4.57;;
2646;SDS011;1333;50.958;6.770;2023-06-22T14:24:48;4.97;;;4.63;;
2646;SDS011;1333;50.958;6.770;2023-06-22T14:27:14;5.43;;;4.93;;
2646;SDS011;1333;50.958;6.770;2023-06-22T14:29:40;6.40;;;5.37;;
2646;SDS011;1333;50.958;6.770;2023-06-22T14:32:06;5.40;;;4.90;;
2646;SDS011;1333;50.958;6.770;2023-06-22T14:34:32;6.50;;;5.90;;
2646;SDS011;1333;50.958;6.770;2023-06-22T14:37:00;6.13;;;5.47;;
2646;SDS011;1333;50.958;6.770;2023-06-22T14:39:26;6.60;;;6.10;;
2646;SDS011;1333;50.958;6.770;2023-06-22T14:41:52;6.50;;;6.00;;
2646;SDS011;1333;50.958;6.770;2023-06-22T14:44:17;8.53;;;7.63;;
2646;SDS011;1333;50.958;6.770;2023-06-22T14:46:43;8.57;;;7.80;;
2646;SDS011;1333;50.958;6.770;2023-06-22T14:49:08;9.43;;;6.80;;
2646;SDS011;1333;50.958;6.770;2023-06-22T14:51:34;8.03;;;7.33;;
2646;SDS011;1333;50.958;6.770;2023-06-22T14:54:00;7.20;;;6.50;;
2646;SDS011;1333;50.958;6.770;2023-06-22T14:56:25;6.50;;;5.90;;
2646;SDS011;1333;50.958;6.770;2023-06-22T14:58:50;6.90;;;6.20;;
2646;SDS011;1333;50.958;6.770;2023-06-22T15:01:16;9.17;;;6.47;;
2646;SDS011;1333;50.958;6.770;2023-06-22T15:03:42;7.10;;;6.40;;
2646;SDS011;1333;50.958;6.770;2023-06-22T15:06:08;9.40;;;6.87;;
2646;SDS011;1333;50.958;6.770;2023-06-22T15:08:34;7.40;;;6.60;;
2646;SDS011;1333;50.958;6.770;2023-06-22T15:11:01;7.57;;;6.13;;
2646;SDS011;1333;50.958;6.770;2023-06-22T15:13:27;7.53;;;6.83;;
2646;SDS011;1333;50.958;6.770;2023-06-22T15:15:52;7.60;;;6.90;;
2646;SDS011;1333;50.958;6.770;2023-06-22T15:18:18;7.47;;;6.77;;